sensor_id;sensor_type;location;lat;lon;timestamp;P1;durP1;ratioP1;P2;durP2;ratioP2
6344;SDS011;3205;42.666;23.264;2022-08-18T00:01:33;7.50;;;4.57;;
6344;SDS011;3205;42.666;23.264;2022-08-18T00:04:00;7.10;;;3.90;;
6344;SDS011;3205;42.666;23.264;2022-08-18T00:06:27;4.60;;;3.97;;
6344;SDS011;3205;42.666;23.264;2022-08-18T00:08:53;5.18;;;4.35;;
6344;SDS011;3205;42.666;23.264;2022-08-18T00:11:20;5.13;;;3.92;;
6344;SDS011;3205;42.666;23.264;2022-08-18T00:13:47;4.90;;;4.07;;
6344;SDS011;3205;42.666;23.264;2022-08-18T00:16:15;4.80;;;4.10;;
6344;SDS011;3205;42.666;23.264;2022-08-18T00:18:41;5.38;;;4.10;;
6344;SDS011;3205;42.666;23.264;2022-08-18T00:21:08;5.70;;;4.13;;
6344;SDS011;3205;42.666;23.264;2022-08-18T00:23:35;5.35;;;4.15;;
6344;SDS011;3205;42.666;23.264;2022-08-18T00:26:02;4.53;;;4.13;;
6344;SDS011;3205;42.666;23.264;2022-08-18T00:28:30;5.15;;;4.65;;
6344;SDS011;3205;42.666;23.264;2022-08-18T00:30:57;4.40;;;4.00;;
6344;SDS011;3205;42.666;23.264;2022-08-18T00:33:24;6.55;;;4.28;;
6344;SDS011;3205;42.666;23.264;2022-08-18T00:35:51;8.52;;;4.82;;
6344;SDS011;3205;42.666;23.264;2022-08-18T00:38:18;4.82;;;4.35;;
6344;SDS011;3205;42.666;23.264;2022-08-18T00:40:46;11.02;;;4.65;;
6344;SDS011;3205;42.666;23.264;2022-08-18T00:43:15;5.57;;;4.80;;
6344;SDS011;3205;42.666;23.264;2022-08-18T00:45:44;5.95;;;4.35;;
6344;SDS011;3205;42.666;23.264;2022-08-18T00:48:11;5.97;;;4.45;;
6344;SDS011;3205;42.666;23.264;2022-08-18T00:50:41;6.05;;;4.47;;
6344;SDS011;3205;42.666;23.264;2022-08-18T00:53:11;5.50;;;4.70;;
6344;SDS011;3205;42.666;23.264;2022-08-18T00:55:38;5.78;;;4.25;;
6344;SDS011;3205;42.666;23.264;2022-08-18T00:58:06;5.07;;;4.55;;
6344;SDS011;3205;42.666;23.264;2022-08-18T01:00:34;5.68;;;4.47;;
6344;SDS011;3205;42.666;23.264;2022-08-18T01:03:03;6.38;;;4.22;;
6344;SDS011;3205;42.666;23.264;2022-08-18T01:05:31;4.40;;;4.00;;
6344;SDS011;3205;42.666;23.264;2022-08-18T01:08:00;6.65;;;4.45;;
6344;SDS011;3205;42.666;23.264;2022-08-18T01:10:27;5.13;;;4.55;;
6344;SDS011;3205;42.666;23.264;2022-08-18T01:12:55;6.15;;;4.53;;
6344;SDS011;3205;42.666;23.264;2022-08-18T01:15:22;6.78;;;5.10;;
6344;SDS011;3205;42.666;23.264;2022-08-18T01:17:49;6.93;;;4.55;;
6344;SDS011;3205;42.666;23.264;2022-08-18T01:20:35;4.68;;;4.25;;
6344;SDS011;3205;42.666;23.264;2022-08-18T01:23:21;8.65;;;4.43;;
6344;SDS011;3205;42.666;23.264;2022-08-18T01:25:48;6.57;;;5.00;;
6344;SDS011;3205;42.666;23.264;2022-08-18T01:28:24;5.15;;;4.65;;
6344;SDS011;3205;42.666;23.264;2022-08-18T01:30:52;5.97;;;4.47;;
6344;SDS011;3205;42.666;23.264;2022-08-18T01:33:22;5.10;;;4.50;;
6344;SDS011;3205;42.666;23.264;2022-08-18T01:35:51;6.93;;;4.95;;
6344;SDS011;3205;42.666;23.264;2022-08-18T01:38:18;5.45;;;4.93;;
6344;SDS011;3205;42.666;23.264;2022-08-18T01:40:48;5.13;;;4.68;;
6344;SDS011;3205;42.666;23.264;2022-08-18T01:43:16;10.38;;;4.70;;
6344;SDS011;3205;42.666;23.264;2022-08-18T01:45:44;7.43;;;5.53;;
6344;SDS011;3205;42.666;23.264;2022-08-18T01:48:12;23.95;;;7.22;;
6344;SDS011;3205;42.666;23.264;2022-08-18T01:50:38;28.55;;;6.93;;
6344;SDS011;3205;42.666;23.264;2022-08-18T01:53:08;22.40;;;6.85;;
6344;SDS011;3205;42.666;23.264;2022-08-18T01:55:36;36.15;;;7.25;;
6344;SDS011;3205;42.666;23.264;2022-08-18T01:58:04;34.80;;;8.23;;
6344;SDS011;3205;42.666;23.264;2022-08-18T02:00:33;21.73;;;6.85;;
6344;SDS011;3205;42.666;23.264;2022-08-18T02:03:01;18.05;;;6.82;;
6344;SDS011;3205;42.666;23.264;2022-08-18T02:05:32;17.90;;;7.43;;
6344;SDS011;3205;42.666;23.264;2022-08-18T02:08:00;24.52;;;7.43;;
6344;SDS011;3205;42.666;23.264;2022-08-18T02:10:27;27.00;;;7.70;;
6344;SDS011;3205;42.666;23.264;2022-08-18T02:12:53;26.67;;;6.97;;
6344;SDS011;3205;42.666;23.264;2022-08-18T02:15:21;22.48;;;6.50;;
6344;SDS011;3205;42.666;23.264;2022-08-18T02:17:49;14.40;;;6.10;;
6344;SDS011;3205;42.666;23.264;2022-08-18T02:20:16;20.10;;;6.25;;
6344;SDS011;3205;42.666;23.264;2022-08-18T02:22:44;10.73;;;5.97;;
6344;SDS011;3205;42.666;23.264;2022-08-18T02:25:11;15.82;;;5.80;;
6344;SDS011;3205;42.666;23.264;2022-08-18T02:27:38;7.40;;;5.53;;
6344;SDS011;3205;42.666;23.264;2022-08-18T02:30:05;8.50;;;5.10;;
6344;SDS011;3205;42.666;23.264;2022-08-18T02:32:34;8.93;;;5.70;;
6344;SDS011;3205;42.666;23.264;2022-08-18T02:35:00;6.53;;;5.93;;
6344;SDS011;3205;42.666;23.264;2022-08-18T02:37:27;5.88;;;5.10;;
6344;SDS011;3205;42.666;23.264;2022-08-18T02:39:55;7.43;;;5.40;;
6344;SDS011;3205;42.666;23.264;2022-08-18T02:42:21;5.85;;;5.25;;
6344;SDS011;3205;42.666;23.264;2022-08-18T02:44:48;11.50;;;5.57;;
6344;SDS011;3205;42.666;23.264;2022-08-18T02:47:17;8.98;;;5.22;;
6344;SDS011;3205;42.666;23.264;2022-08-18T02:49:45;5.80;;;4.97;;
6344;SDS011;3205;42.666;23.264;2022-08-18T02:52:12;7.00;;;5.25;;
6344;SDS011;3205;42.666;23.264;2022-08-18T02:54:39;5.78;;;5.00;;
6344;SDS011;3205;42.666;23.264;2022-08-18T02:57:06;10.93;;;5.80;;
6344;SDS011;3205;42.666;23.264;2022-08-18T02:59:34;8.32;;;5.20;;
6344;SDS011;3205;42.666;23.264;2022-08-18T03:02:01;8.07;;;5.72;;
6344;SDS011;3205;42.666;23.264;2022-08-18T03:04:28;6.15;;;5.57;;
6344;SDS011;3205;42.666;23.264;2022-08-18T03:06:57;8.85;;;5.47;;
6344;SDS011;3205;42.666;23.264;2022-08-18T03:09:25;12.75;;;5.85;;
6344;SDS011;3205;42.666;23.264;2022-08-18T03:11:51;9.88;;;5.68;;
6344;SDS011;3205;42.666;23.264;2022-08-18T03:14:19;6.75;;;6.05;;
6344;SDS011;3205;42.666;23.264;2022-08-18T03:16:46;6.82;;;6.20;;
6344;SDS011;3205;42.666;23.264;2022-08-18T03:19:13;8.38;;;5.97;;
6344;SDS011;3205;42.666;23.264;2022-08-18T03:21:40;8.00;;;5.95;;
6344;SDS011;3205;42.666;23.264;2022-08-18T03:24:09;6.25;;;5.70;;
6344;SDS011;3205;42.666;23.264;2022-08-18T03:26:39;6.65;;;5.88;;
6344;SDS011;3205;42.666;23.264;2022-08-18T03:29:07;19.15;;;6.25;;
6344;SDS011;3205;42.666;23.264;2022-08-18T03:31:33;12.00;;;7.00;;
6344;SDS011;3205;42.666;23.264;2022-08-18T03:34:00;19.10;;;6.93;;
6344;SDS011;3205;42.666;23.264;2022-08-18T03:36:27;17.63;;;7.85;;
6344;SDS011;3205;42.666;23.264;2022-08-18T03:38:56;22.30;;;7.78;;
6344;SDS011;3205;42.666;23.264;2022-08-18T03:41:25;20.58;;;7.05;;
6344;SDS011;3205;42.666;23.264;2022-08-18T03:43:53;13.70;;;7.00;;
6344;SDS011;3205;42.666;23.264;2022-08-18T03:46:20;11.65;;;6.43;;
6344;SDS011;3205;42.666;23.264;2022-08-18T03:48:48;9.93;;;7.25;;
6344;SDS011;3205;42.666;23.264;2022-08-18T03:51:16;11.45;;;6.10;;
6344;SDS011;3205;42.666;23.264;2022-08-18T03:53:43;6.15;;;5.57;;
6344;SDS011;3205;42.666;23.264;2022-08-18T03:56:13;8.88;;;5.95;;
6344;SDS011;3205;42.666;23.264;2022-08-18T03:58:43;8.73;;;6.43;;
6344;SDS011;3205;42.666;23.264;2022-08-18T04:01:11;10.80;;;6.00;;
6344;SDS011;3205;42.666;23.264;2022-08-18T04:03:39;8.02;;;6.13;;
6344;SDS011;3205;42.666;23.264;2022-08-18T04:06:06;11.27;;;7.88;;
6344;SDS011;3205;42.666;23.264;2022-08-18T04:08:33;9.38;;;7.47;;
6344;SDS011;3205;42.666;23.264;2022-08-18T04:10:59;10.30;;;7.43;;
6344;SDS011;3205;42.666;23.264;2022-08-18T04:13:26;10.48;;;8.05;;
6344;SDS011;3205;42.666;23.264;2022-08-18T04:15:54;14.27;;;7.45;;
6344;SDS011;3205;42.666;23.264;2022-08-18T04:18:20;22.95;;;7.80;;
6344;SDS011;3205;42.666;23.264;2022-08-18T04:20:47;18.23;;;8.40;;
6344;SDS011;3205;42.666;23.264;2022-08-18T04:23:13;18.00;;;8.32;;
6344;SDS011;3205;42.666;23.264;2022-08-18T04:25:40;17.92;;;8.68;;
6344;SDS011;3205;42.666;23.264;2022-08-18T04:28:06;21.65;;;9.10;;
6344;SDS011;3205;42.666;23.264;2022-08-18T04:30:33;30.13;;;8.57;;
6344;SDS011;3205;42.666;23.264;2022-08-18T04:33:01;17.73;;;8.27;;
6344;SDS011;3205;42.666;23.264;2022-08-18T04:35:30;25.40;;;9.02;;
6344;SDS011;3205;42.666;23.264;2022-08-18T04:37:57;16.80;;;8.05;;
6344;SDS011;3205;42.666;23.264;2022-08-18T04:40:23;20.90;;;8.40;;
6344;SDS011;3205;42.666;23.264;2022-08-18T04:42:51;16.90;;;8.00;;
6344;SDS011;3205;42.666;23.264;2022-08-18T04:45:18;20.02;;;7.75;;
6344;SDS011;3205;42.666;23.264;2022-08-18T04:47:44;21.35;;;8.40;;
6344;SDS011;3205;42.666;23.264;2022-08-18T04:50:12;14.43;;;7.55;;
6344;SDS011;3205;42.666;23.264;2022-08-18T04:52:39;26.13;;;7.40;;
6344;SDS011;3205;42.666;23.264;2022-08-18T04:55:23;13.63;;;7.20;;
6344;SDS011;3205;42.666;23.264;2022-08-18T04:57:53;13.20;;;7.10;;
6344;SDS011;3205;42.666;23.264;2022-08-18T05:00:19;13.63;;;6.35;;
6344;SDS011;3205;42.666;23.264;2022-08-18T05:02:46;14.38;;;6.22;;
6344;SDS011;3205;42.666;23.264;2022-08-18T05:05:14;14.25;;;6.93;;
6344;SDS011;3205;42.666;23.264;2022-08-18T05:07:42;23.15;;;6.88;;
6344;SDS011;3205;42.666;23.264;2022-08-18T05:10:09;19.63;;;6.97;;
6344;SDS011;3205;42.666;23.264;2022-08-18T05:12:37;8.95;;;5.90;;
6344;SDS011;3205;42.666;23.264;2022-08-18T05:15:06;18.48;;;6.70;;
6344;SDS011;3205;42.666;23.264;2022-08-18T05:17:35;10.85;;;6.22;;
6344;SDS011;3205;42.666;23.264;2022-08-18T05:20:04;14.57;;;7.65;;
6344;SDS011;3205;42.666;23.264;2022-08-18T05:22:36;13.75;;;7.63;;
6344;SDS011;3205;42.666;23.264;2022-08-18T05:25:03;13.82;;;6.95;;
6344;SDS011;3205;42.666;23.264;2022-08-18T05:27:30;10.45;;;6.68;;
6344;SDS011;3205;42.666;23.264;2022-08-18T05:29:58;12.52;;;7.65;;
6344;SDS011;3205;42.666;23.264;2022-08-18T05:32:26;11.32;;;7.53;;
6344;SDS011;3205;42.666;23.264;2022-08-18T05:34:55;13.60;;;7.82;;
6344;SDS011;3205;42.666;23.264;2022-08-18T05:37:23;14.88;;;6.70;;
6344;SDS011;3205;42.666;23.264;2022-08-18T05:39:58;8.43;;;7.28;;
6344;SDS011;3205;42.666;23.264;2022-08-18T05:42:26;13.57;;;7.13;;
6344;SDS011;3205;42.666;23.264;2022-08-18T05:44:55;12.63;;;7.53;;
6344;SDS011;3205;42.666;23.264;2022-08-18T05:47:22;14.80;;;6.45;;
6344;SDS011;3205;42.666;23.264;2022-08-18T05:49:51;13.60;;;8.02;;
6344;SDS011;3205;42.666;23.264;2022-08-18T05:52:20;11.85;;;6.80;;
6344;SDS011;3205;42.666;23.264;2022-08-18T05:54:50;13.20;;;8.65;;
6344;SDS011;3205;42.666;23.264;2022-08-18T05:57:39;15.70;;;8.45;;
6344;SDS011;3205;42.666;23.264;2022-08-18T06:00:10;11.60;;;6.95;;
6344;SDS011;3205;42.666;23.264;2022-08-18T06:02:37;19.13;;;7.20;;
6344;SDS011;3205;42.666;23.264;2022-08-18T06:05:10;9.02;;;7.03;;
6344;SDS011;3205;42.666;23.264;2022-08-18T06:07:40;14.52;;;5.88;;
6344;SDS011;3205;42.666;23.264;2022-08-18T06:10:07;18.33;;;7.30;;
6344;SDS011;3205;42.666;23.264;2022-08-18T06:12:35;12.32;;;6.75;;
6344;SDS011;3205;42.666;23.264;2022-08-18T06:15:06;13.98;;;7.35;;
6344;SDS011;3205;42.666;23.264;2022-08-18T06:17:37;20.50;;;7.00;;
6344;SDS011;3205;42.666;23.264;2022-08-18T06:20:10;13.25;;;7.72;;
6344;SDS011;3205;42.666;23.264;2022-08-18T06:22:39;11.18;;;6.80;;
6344;SDS011;3205;42.666;23.264;2022-08-18T06:25:10;21.98;;;7.15;;
6344;SDS011;3205;42.666;23.264;2022-08-18T06:27:41;14.70;;;6.60;;
6344;SDS011;3205;42.666;23.264;2022-08-18T06:30:11;11.48;;;5.80;;
6344;SDS011;3205;42.666;23.264;2022-08-18T06:32:49;13.65;;;6.13;;
6344;SDS011;3205;42.666;23.264;2022-08-18T06:35:21;12.35;;;6.15;;
6344;SDS011;3205;42.666;23.264;2022-08-18T06:37:50;7.70;;;5.93;;
6344;SDS011;3205;42.666;23.264;2022-08-18T06:40:38;11.57;;;6.78;;
6344;SDS011;3205;42.666;23.264;2022-08-18T06:43:08;16.90;;;6.28;;
6344;SDS011;3205;42.666;23.264;2022-08-18T06:45:37;10.68;;;4.72;;
6344;SDS011;3205;42.666;23.264;2022-08-18T06:48:05;11.13;;;5.40;;
6344;SDS011;3205;42.666;23.264;2022-08-18T06:50:33;7.60;;;5.25;;
6344;SDS011;3205;42.666;23.264;2022-08-18T06:53:04;13.48;;;5.43;;
6344;SDS011;3205;42.666;23.264;2022-08-18T06:55:31;10.38;;;6.20;;
6344;SDS011;3205;42.666;23.264;2022-08-18T06:57:59;9.60;;;5.03;;
6344;SDS011;3205;42.666;23.264;2022-08-18T07:00:27;10.00;;;5.10;;
6344;SDS011;3205;42.666;23.264;2022-08-18T07:02:56;8.75;;;4.75;;
6344;SDS011;3205;42.666;23.264;2022-08-18T07:05:25;8.60;;;5.28;;
6344;SDS011;3205;42.666;23.264;2022-08-18T07:10:40;11.57;;;5.25;;
6344;SDS011;3205;42.666;23.264;2022-08-18T07:13:16;12.68;;;5.22;;
6344;SDS011;3205;42.666;23.264;2022-08-18T07:15:44;8.52;;;5.03;;
6344;SDS011;3205;42.666;23.264;2022-08-18T07:18:14;11.50;;;5.25;;
6344;SDS011;3205;42.666;23.264;2022-08-18T07:20:42;10.80;;;5.68;;
6344;SDS011;3205;42.666;23.264;2022-08-18T07:23:09;4.55;;;4.15;;
6344;SDS011;3205;42.666;23.264;2022-08-18T07:25:46;11.02;;;5.22;;
6344;SDS011;3205;42.666;23.264;2022-08-18T07:28:25;10.13;;;4.68;;
6344;SDS011;3205;42.666;23.264;2022-08-18T07:30:52;5.75;;;4.65;;
6344;SDS011;3205;42.666;23.264;2022-08-18T07:33:21;9.40;;;4.80;;
6344;SDS011;3205;42.666;23.264;2022-08-18T07:35:50;6.93;;;4.93;;
6344;SDS011;3205;42.666;23.264;2022-08-18T07:38:18;8.68;;;4.35;;
6344;SDS011;3205;42.666;23.264;2022-08-18T07:40:48;5.55;;;4.30;;
6344;SDS011;3205;42.666;23.264;2022-08-18T07:43:19;5.75;;;3.90;;
6344;SDS011;3205;42.666;23.264;2022-08-18T07:45:47;7.78;;;4.82;;
6344;SDS011;3205;42.666;23.264;2022-08-18T07:48:15;10.32;;;4.47;;
6344;SDS011;3205;42.666;23.264;2022-08-18T07:50:47;6.15;;;3.97;;
6344;SDS011;3205;42.666;23.264;2022-08-18T07:53:17;7.00;;;4.20;;
6344;SDS011;3205;42.666;23.264;2022-08-18T07:55:46;8.32;;;4.20;;
6344;SDS011;3205;42.666;23.264;2022-08-18T07:58:18;7.50;;;4.97;;
6344;SDS011;3205;42.666;23.264;2022-08-18T08:00:47;5.60;;;4.70;;
6344;SDS011;3205;42.666;23.264;2022-08-18T08:03:19;4.85;;;4.20;;
6344;SDS011;3205;42.666;23.264;2022-08-18T08:05:53;20.00;;;5.97;;
6344;SDS011;3205;42.666;23.264;2022-08-18T08:08:22;11.52;;;5.38;;
6344;SDS011;3205;42.666;23.264;2022-08-18T08:10:54;6.50;;;4.35;;
6344;SDS011;3205;42.666;23.264;2022-08-18T08:13:27;4.88;;;4.47;;
6344;SDS011;3205;42.666;23.264;2022-08-18T08:16:00;5.47;;;4.45;;
6344;SDS011;3205;42.666;23.264;2022-08-18T08:18:31;16.20;;;5.20;;
6344;SDS011;3205;42.666;23.264;2022-08-18T08:21:02;11.48;;;4.75;;
6344;SDS011;3205;42.666;23.264;2022-08-18T08:23:32;21.98;;;5.90;;
6344;SDS011;3205;42.666;23.264;2022-08-18T08:28:44;8.23;;;4.50;;
6344;SDS011;3205;42.666;23.264;2022-08-18T08:31:15;11.38;;;5.20;;
6344;SDS011;3205;42.666;23.264;2022-08-18T08:33:49;4.32;;;3.80;;
6344;SDS011;3205;42.666;23.264;2022-08-18T08:36:20;9.60;;;4.97;;
6344;SDS011;3205;42.666;23.264;2022-08-18T08:38:50;10.38;;;4.78;;
6344;SDS011;3205;42.666;23.264;2022-08-18T08:41:21;5.53;;;4.63;;
6344;SDS011;3205;42.666;23.264;2022-08-18T08:44:00;9.32;;;4.47;;
6344;SDS011;3205;42.666;23.264;2022-08-18T08:46:28;5.32;;;4.00;;
6344;SDS011;3205;42.666;23.264;2022-08-18T08:48:58;5.88;;;4.03;;
6344;SDS011;3205;42.666;23.264;2022-08-18T08:51:30;10.35;;;4.43;;
6344;SDS011;3205;42.666;23.264;2022-08-18T08:54:03;4.13;;;3.83;;
6344;SDS011;3205;42.666;23.264;2022-08-18T08:56:32;6.22;;;4.07;;
6344;SDS011;3205;42.666;23.264;2022-08-18T08:59:01;13.07;;;4.43;;
6344;SDS011;3205;42.666;23.264;2022-08-18T09:01:29;6.15;;;3.80;;
6344;SDS011;3205;42.666;23.264;2022-08-18T09:03:58;5.60;;;3.90;;
6344;SDS011;3205;42.666;23.264;2022-08-18T09:06:33;5.68;;;4.00;;
6344;SDS011;3205;42.666;23.264;2022-08-18T09:09:09;8.88;;;4.22;;
6344;SDS011;3205;42.666;23.264;2022-08-18T09:11:48;4.40;;;3.63;;
6344;SDS011;3205;42.666;23.264;2022-08-18T09:14:40;6.70;;;4.07;;
6344;SDS011;3205;42.666;23.264;2022-08-18T09:17:15;5.82;;;4.35;;
6344;SDS011;3205;42.666;23.264;2022-08-18T09:19:55;4.78;;;4.30;;
6344;SDS011;3205;42.666;23.264;2022-08-18T09:22:28;4.35;;;3.60;;
6344;SDS011;3205;42.666;23.264;2022-08-18T09:24:57;8.90;;;3.75;;
6344;SDS011;3205;42.666;23.264;2022-08-18T09:27:34;8.35;;;3.40;;
6344;SDS011;3205;42.666;23.264;2022-08-18T09:30:03;5.72;;;3.70;;
6344;SDS011;3205;42.666;23.264;2022-08-18T09:35:17;5.10;;;3.85;;
6344;SDS011;3205;42.666;23.264;2022-08-18T09:37:48;5.10;;;4.00;;
6344;SDS011;3205;42.666;23.264;2022-08-18T09:40:37;7.57;;;4.55;;
6344;SDS011;3205;42.666;23.264;2022-08-18T09:43:30;6.25;;;3.72;;
6344;SDS011;3205;42.666;23.264;2022-08-18T09:45:58;7.78;;;4.20;;
6344;SDS011;3205;42.666;23.264;2022-08-18T09:48:29;11.85;;;5.05;;
6344;SDS011;3205;42.666;23.264;2022-08-18T09:53:53;4.93;;;3.67;;
6344;SDS011;3205;42.666;23.264;2022-08-18T09:59:11;5.55;;;3.42;;
6344;SDS011;3205;42.666;23.264;2022-08-18T10:01:58;6.85;;;3.50;;
6344;SDS011;3205;42.666;23.264;2022-08-18T10:04:28;5.45;;;3.72;;
6344;SDS011;3205;42.666;23.264;2022-08-18T10:07:16;4.15;;;3.85;;
6344;SDS011;3205;42.666;23.264;2022-08-18T10:09:46;8.07;;;4.15;;
6344;SDS011;3205;42.666;23.264;2022-08-18T10:15:11;4.43;;;4.10;;
6344;SDS011;3205;42.666;23.264;2022-08-18T10:17:46;6.00;;;4.40;;
6344;SDS011;3205;42.666;23.264;2022-08-18T10:20:19;4.55;;;4.00;;
6344;SDS011;3205;42.666;23.264;2022-08-18T10:22:48;20.85;;;5.18;;
6344;SDS011;3205;42.666;23.264;2022-08-18T10:25:29;5.75;;;3.90;;
6344;SDS011;3205;42.666;23.264;2022-08-18T10:27:55;15.20;;;4.88;;
6344;SDS011;3205;42.666;23.264;2022-08-18T10:33:11;4.80;;;3.72;;
6344;SDS011;3205;42.666;23.264;2022-08-18T10:41:04;4.30;;;3.75;;
6344;SDS011;3205;42.666;23.264;2022-08-18T10:43:34;5.43;;;3.70;;
6344;SDS011;3205;42.666;23.264;2022-08-18T10:46:02;3.75;;;3.15;;
6344;SDS011;3205;42.666;23.264;2022-08-18T10:48:31;7.50;;;3.80;;
6344;SDS011;3205;42.666;23.264;2022-08-18T10:51:00;6.25;;;4.22;;
6344;SDS011;3205;42.666;23.264;2022-08-18T10:53:29;8.27;;;3.90;;
6344;SDS011;3205;42.666;23.264;2022-08-18T10:55:58;3.95;;;3.65;;
6344;SDS011;3205;42.666;23.264;2022-08-18T10:58:39;6.32;;;4.30;;
6344;SDS011;3205;42.666;23.264;2022-08-18T11:01:15;6.78;;;4.15;;
6344;SDS011;3205;42.666;23.264;2022-08-18T11:03:58;7.47;;;3.88;;
6344;SDS011;3205;42.666;23.264;2022-08-18T11:06:25;7.40;;;3.63;;
6344;SDS011;3205;42.666;23.264;2022-08-18T11:08:55;4.00;;;3.60;;
6344;SDS011;3205;42.666;23.264;2022-08-18T11:11:23;4.53;;;3.55;;
6344;SDS011;3205;42.666;23.264;2022-08-18T11:13:52;4.90;;;3.50;;
6344;SDS011;3205;42.666;23.264;2022-08-18T11:16:25;3.60;;;3.30;;
6344;SDS011;3205;42.666;23.264;2022-08-18T11:18:57;4.03;;;3.63;;
6344;SDS011;3205;42.666;23.264;2022-08-18T11:21:32;5.22;;;3.78;;
6344;SDS011;3205;42.666;23.264;2022-08-18T11:24:07;4.07;;;3.38;;
6344;SDS011;3205;42.666;23.264;2022-08-18T11:26:35;3.83;;;3.53;;
6344;SDS011;3205;42.666;23.264;2022-08-18T11:29:15;6.60;;;3.60;;
6344;SDS011;3205;42.666;23.264;2022-08-18T11:31:41;5.38;;;3.60;;
6344;SDS011;3205;42.666;23.264;2022-08-18T11:34:11;3.90;;;3.58;;
6344;SDS011;3205;42.666;23.264;2022-08-18T11:36:39;4.30;;;3.58;;
6344;SDS011;3205;42.666;23.264;2022-08-18T11:39:07;5.28;;;3.63;;
6344;SDS011;3205;42.666;23.264;2022-08-18T11:41:33;7.20;;;3.78;;
6344;SDS011;3205;42.666;23.264;2022-08-18T11:44:16;4.45;;;3.20;;
6344;SDS011;3205;42.666;23.264;2022-08-18T11:46:45;6.78;;;3.58;;
6344;SDS011;3205;42.666;23.264;2022-08-18T11:49:17;7.60;;;4.13;;
6344;SDS011;3205;42.666;23.264;2022-08-18T11:51:54;3.58;;;3.25;;
6344;SDS011;3205;42.666;23.264;2022-08-18T11:54:22;5.15;;;3.45;;
6344;SDS011;3205;42.666;23.264;2022-08-18T11:59:39;4.78;;;3.40;;
6344;SDS011;3205;42.666;23.264;2022-08-18T12:02:05;9.07;;;4.20;;
6344;SDS011;3205;42.666;23.264;2022-08-18T12:04:37;3.95;;;3.65;;
6344;SDS011;3205;42.666;23.264;2022-08-18T12:07:05;6.68;;;3.92;;
6344;SDS011;3205;42.666;23.264;2022-08-18T12:09:35;4.75;;;3.95;;
6344;SDS011;3205;42.666;23.264;2022-08-18T12:12:02;3.42;;;3.20;;
6344;SDS011;3205;42.666;23.264;2022-08-18T12:14:30;5.82;;;3.70;;
6344;SDS011;3205;42.666;23.264;2022-08-18T12:16:57;3.95;;;3.55;;
6344;SDS011;3205;42.666;23.264;2022-08-18T12:19:24;5.85;;;3.70;;
6344;SDS011;3205;42.666;23.264;2022-08-18T12:21:57;4.40;;;3.80;;
6344;SDS011;3205;42.666;23.264;2022-08-18T12:24:26;5.32;;;3.80;;
6344;SDS011;3205;42.666;23.264;2022-08-18T12:26:53;6.55;;;3.92;;
6344;SDS011;3205;42.666;23.264;2022-08-18T12:29:21;6.15;;;3.55;;
6344;SDS011;3205;42.666;23.264;2022-08-18T12:31:49;3.88;;;3.58;;
6344;SDS011;3205;42.666;23.264;2022-08-18T12:34:16;5.75;;;4.30;;
6344;SDS011;3205;42.666;23.264;2022-08-18T12:36:43;7.68;;;4.28;;
6344;SDS011;3205;42.666;23.264;2022-08-18T12:39:12;4.63;;;4.10;;
6344;SDS011;3205;42.666;23.264;2022-08-18T12:41:38;8.13;;;4.25;;
6344;SDS011;3205;42.666;23.264;2022-08-18T12:44:05;6.35;;;4.13;;
6344;SDS011;3205;42.666;23.264;2022-08-18T12:46:31;4.30;;;3.90;;
6344;SDS011;3205;42.666;23.264;2022-08-18T12:48:58;7.72;;;4.05;;
6344;SDS011;3205;42.666;23.264;2022-08-18T12:51:24;6.00;;;4.32;;
6344;SDS011;3205;42.666;23.264;2022-08-18T12:53:51;4.28;;;3.88;;
6344;SDS011;3205;42.666;23.264;2022-08-18T12:56:20;4.28;;;3.72;;
6344;SDS011;3205;42.666;23.264;2022-08-18T12:58:49;5.35;;;3.92;;
6344;SDS011;3205;42.666;23.264;2022-08-18T13:01:15;5.88;;;3.28;;
6344;SDS011;3205;42.666;23.264;2022-08-18T13:03:43;12.38;;;3.72;;
6344;SDS011;3205;42.666;23.264;2022-08-18T13:06:11;6.70;;;4.00;;
6344;SDS011;3205;42.666;23.264;2022-08-18T13:08:38;9.85;;;3.83;;
6344;SDS011;3205;42.666;23.264;2022-08-18T13:11:04;6.70;;;4.15;;
6344;SDS011;3205;42.666;23.264;2022-08-18T13:13:36;8.13;;;4.28;;
6344;SDS011;3205;42.666;23.264;2022-08-18T13:16:03;4.25;;;3.95;;
6344;SDS011;3205;42.666;23.264;2022-08-18T13:18:29;7.20;;;4.13;;
6344;SDS011;3205;42.666;23.264;2022-08-18T13:20:56;4.25;;;3.95;;
6344;SDS011;3205;42.666;23.264;2022-08-18T13:23:23;4.43;;;4.03;;
6344;SDS011;3205;42.666;23.264;2022-08-18T13:25:51;5.63;;;3.83;;
6344;SDS011;3205;42.666;23.264;2022-08-18T13:28:18;5.57;;;4.18;;
6344;SDS011;3205;42.666;23.264;2022-08-18T13:30:46;6.20;;;4.20;;
6344;SDS011;3205;42.666;23.264;2022-08-18T13:33:13;5.70;;;3.70;;
6344;SDS011;3205;42.666;23.264;2022-08-18T13:35:41;7.30;;;3.95;;
6344;SDS011;3205;42.666;23.264;2022-08-18T13:38:07;4.68;;;3.97;;
6344;SDS011;3205;42.666;23.264;2022-08-18T13:40:35;14.20;;;9.13;;
6344;SDS011;3205;42.666;23.264;2022-08-18T13:43:02;6.22;;;5.72;;
6344;SDS011;3205;42.666;23.264;2022-08-18T13:45:29;5.97;;;4.13;;
6344;SDS011;3205;42.666;23.264;2022-08-18T13:47:57;8.60;;;4.90;;
6344;SDS011;3205;42.666;23.264;2022-08-18T13:50:24;3.67;;;3.38;;
6344;SDS011;3205;42.666;23.264;2022-08-18T13:52:52;4.15;;;3.58;;
6344;SDS011;3205;42.666;23.264;2022-08-18T13:55:19;4.78;;;3.50;;
6344;SDS011;3205;42.666;23.264;2022-08-18T13:57:45;7.18;;;4.18;;
6344;SDS011;3205;42.666;23.264;2022-08-18T14:00:14;8.00;;;3.80;;
6344;SDS011;3205;42.666;23.264;2022-08-18T14:02:41;4.63;;;4.13;;
6344;SDS011;3205;42.666;23.264;2022-08-18T14:05:09;6.00;;;3.88;;
6344;SDS011;3205;42.666;23.264;2022-08-18T14:07:36;8.35;;;3.63;;
6344;SDS011;3205;42.666;23.264;2022-08-18T14:10:03;6.68;;;3.65;;
6344;SDS011;3205;42.666;23.264;2022-08-18T14:12:32;4.95;;;4.43;;
6344;SDS011;3205;42.666;23.264;2022-08-18T14:15:01;4.60;;;4.10;;
6344;SDS011;3205;42.666;23.264;2022-08-18T14:17:31;5.90;;;4.00;;
6344;SDS011;3205;42.666;23.264;2022-08-18T14:19:58;6.57;;;3.88;;
6344;SDS011;3205;42.666;23.264;2022-08-18T14:22:45;5.03;;;4.30;;
6344;SDS011;3205;42.666;23.264;2022-08-18T14:25:29;4.43;;;3.50;;
6344;SDS011;3205;42.666;23.264;2022-08-18T14:28:22;6.20;;;4.15;;
6344;SDS011;3205;42.666;23.264;2022-08-18T14:30:49;3.97;;;3.67;;
6344;SDS011;3205;42.666;23.264;2022-08-18T14:33:16;7.38;;;4.30;;
6344;SDS011;3205;42.666;23.264;2022-08-18T14:35:44;8.98;;;3.78;;
6344;SDS011;3205;42.666;23.264;2022-08-18T14:38:14;3.85;;;3.55;;
6344;SDS011;3205;42.666;23.264;2022-08-18T14:40:40;5.22;;;3.67;;
6344;SDS011;3205;42.666;23.264;2022-08-18T14:43:07;7.75;;;3.75;;
6344;SDS011;3205;42.666;23.264;2022-08-18T14:45:35;4.00;;;3.70;;
6344;SDS011;3205;42.666;23.264;2022-08-18T14:48:04;5.38;;;3.72;;
6344;SDS011;3205;42.666;23.264;2022-08-18T14:50:31;4.75;;;3.95;;
6344;SDS011;3205;42.666;23.264;2022-08-18T14:52:57;4.00;;;3.70;;
6344;SDS011;3205;42.666;23.264;2022-08-18T14:55:25;4.43;;;4.05;;
6344;SDS011;3205;42.666;23.264;2022-08-18T14:57:52;4.05;;;3.83;;
6344;SDS011;3205;42.666;23.264;2022-08-18T15:00:19;9.13;;;4.38;;
6344;SDS011;3205;42.666;23.264;2022-08-18T15:02:48;4.05;;;3.72;;
6344;SDS011;3205;42.666;23.264;2022-08-18T15:05:15;4.22;;;3.90;;
6344;SDS011;3205;42.666;23.264;2022-08-18T15:07:42;6.13;;;4.35;;
6344;SDS011;3205;42.666;23.264;2022-08-18T15:10:09;7.65;;;4.53;;
6344;SDS011;3205;42.666;23.264;2022-08-18T15:12:39;5.50;;;4.57;;
6344;SDS011;3205;42.666;23.264;2022-08-18T15:15:07;4.28;;;3.97;;
6344;SDS011;3205;42.666;23.264;2022-08-18T15:17:34;4.40;;;4.10;;
6344;SDS011;3205;42.666;23.264;2022-08-18T15:20:03;4.68;;;4.38;;
6344;SDS011;3205;42.666;23.264;2022-08-18T15:22:30;4.88;;;4.47;;
6344;SDS011;3205;42.666;23.264;2022-08-18T15:25:14;5.25;;;4.70;;
6344;SDS011;3205;42.666;23.264;2022-08-18T15:28:08;7.40;;;4.93;;
6344;SDS011;3205;42.666;23.264;2022-08-18T15:30:35;5.28;;;4.38;;
6344;SDS011;3205;42.666;23.264;2022-08-18T15:33:02;5.07;;;4.68;;
6344;SDS011;3205;42.666;23.264;2022-08-18T15:35:29;5.10;;;4.35;;
6344;SDS011;3205;42.666;23.264;2022-08-18T15:37:56;8.15;;;5.07;;
6344;SDS011;3205;42.666;23.264;2022-08-18T15:40:23;5.18;;;4.28;;